Time;durP1;ratioP1;P1;durP2;ratioP2;P2;SDS_P1;SDS_P2;PMS_P1;PMS_P2;Temp;Humidity;BMP_temperature;BMP_pressure;BME280_temperature;BME280_humidity;BME280_pressure;Samples;Min_cycle;Max_cycle;Signal;HPM_P1;HPM_P2
2022/01/07 00:02:02;;;;;;;9.00;3.20;;;;;;;4.28;92.72;101232.91;5040377;28;20484;-69
2022/01/07 00:04:31;;;;;;;15.63;4.00;;;;;;;4.28;91.92;101237.56;5046098;28;20119;-70
2022/01/07 00:06:58;;;;;;;13.98;3.70;;;;;;;4.39;92.18;101234.03;5046728;28;20586;-71
2022/01/07 00:09:24;;;;;;;10.18;3.63;;;;;;;4.29;91.64;101239.97;5041884;28;20049;-71
2022/01/07 00:11:51;;;;;;;5.63;2.28;;;;;;;4.36;92.33;101228.47;5049046;28;20052;-71
2022/01/07 00:14:17;;;;;;;8.45;2.45;;;;;;;4.33;91.79;101223.66;5037024;28;20046;-70
2022/01/07 00:16:44;;;;;;;11.35;3.58;;;;;;;4.32;91.61;101219.34;5041250;28;20045;-71
2022/01/07 00:19:10;;;;;;;9.15;3.65;;;;;;;4.34;91.51;101208.81;5037358;28;20056;-71
2022/01/07 00:21:37;;;;;;;17.73;5.25;;;;;;;4.41;91.76;101209.84;5041627;28;20156;-71
2022/01/07 00:24:04;;;;;;;13.73;3.58;;;;;;;4.36;91.65;101201.06;5047641;28;20127;-70
2022/01/07 00:26:30;;;;;;;21.23;3.55;;;;;;;4.34;91.58;101209.63;5044956;28;20123;-72
2022/01/07 00:28:57;;;;;;;3.35;1.90;;;;;;;4.36;91.88;101201.06;5043541;28;20055;-70
2022/01/07 00:31:23;;;;;;;7.30;3.15;;;;;;;4.36;91.76;101185.41;5035928;28;20723;-70
2022/01/07 00:33:50;;;;;;;7.40;2.95;;;;;;;4.38;92.04;101191.34;5045196;28;20099;-70
2022/01/07 00:36:16;;;;;;;10.85;4.20;;;;;;;4.32;92.13;101186.47;5039725;28;20056;-71
2022/01/07 00:38:43;;;;;;;13.25;3.85;;;;;;;4.36;92.13;101185.41;5040800;28;20053;-70
2022/01/07 00:41:10;;;;;;;13.95;3.80;;;;;;;4.43;92.37;101182.91;5037690;28;20063;-70
2022/01/07 00:43:36;;;;;;;12.68;3.45;;;;;;;4.40;92.18;101169.91;5044640;28;20139;-71
2022/01/07 00:46:03;;;;;;;2.42;1.50;;;;;;;4.43;92.77;101169.22;5045287;28;20137;-71
2022/01/07 00:48:29;;;;;;;11.43;5.35;;;;;;;4.47;92.56;101169.31;5043712;28;20049;-70
2022/01/07 00:50:56;;;;;;;12.60;3.67;;;;;;;4.39;92.42;101168.28;5040907;28;20045;-71
2022/01/07 00:53:22;;;;;;;7.22;1.90;;;;;;;4.43;92.31;101160.19;5025513;28;20615;-70
2022/01/07 00:55:49;;;;;;;9.77;3.35;;;;;;;4.44;92.38;101154.38;5042073;28;20148;-69
2022/01/07 00:58:15;;;;;;;11.80;3.72;;;;;;;4.45;92.03;101155.94;5040502;28;20521;-70
2022/01/07 01:00:42;;;;;;;17.67;5.28;;;;;;;4.44;91.43;101146.13;5037568;28;20124;-72
2022/01/07 01:03:09;;;;;;;17.50;4.80;;;;;;;4.48;91.74;101146.22;5039837;28;20088;-70
2022/01/07 01:05:36;;;;;;;12.98;3.90;;;;;;;4.54;91.54;101142.13;5041755;28;20053;-70
2022/01/07 01:08:03;;;;;;;12.63;4.40;;;;;;;4.49;91.62;101121.22;5044680;28;20050;-71
2022/01/07 01:10:30;;;;;;;20.00;4.78;;;;;;;4.48;91.02;101135.28;5038369;28;21861;-72
2022/01/07 01:12:57;;;;;;;17.17;5.40;;;;;;;4.51;90.62;101131.84;5045463;28;20523;-71
2022/01/07 01:15:25;;;;;;;15.20;5.25;;;;;;;4.53;89.98;101135.03;5043284;28;20416;-71
2022/01/07 01:17:53;;;;;;;9.02;3.13;;;;;;;4.61;90.33;101136.84;5043713;28;20567;-71
2022/01/07 01:20:21;;;;;;;7.13;3.10;;;;;;;4.62;90.68;101132.94;5041566;28;20510;-71
2022/01/07 01:22:47;;;;;;;5.63;1.85;;;;;;;4.65;90.60;101132.25;5036949;28;20055;-71
2022/01/07 01:25:15;;;;;;;15.23;5.60;;;;;;;4.52;90.72;101144.41;5037660;28;20053;-71
2022/01/07 01:27:41;;;;;;;8.95;2.78;;;;;;;4.68;90.75;101132.38;5045898;28;20613;-71
2022/01/07 01:30:11;;;;;;;6.60;1.90;;;;;;;4.60;90.36;101136.06;5042153;28;20421;-71
2022/01/07 01:32:38;;;;;;;7.57;3.65;;;;;;;4.66;90.74;101126.44;5038445;28;20053;-71
2022/01/07 01:35:07;;;;;;;8.13;3.53;;;;;;;4.62;90.95;101133.75;5035605;28;20357;-71
2022/01/07 01:37:34;;;;;;;9.35;3.20;;;;;;;4.61;90.62;101126.69;5035798;28;20072;-71
2022/01/07 01:40:00;;;;;;;7.65;3.17;;;;;;;4.66;90.57;101120.16;5037703;28;20053;-72
2022/01/07 01:42:27;;;;;;;12.88;4.82;;;;;;;4.56;90.83;101105.00;5036144;28;20073;-73
2022/01/07 01:44:54;;;;;;;8.23;3.28;;;;;;;4.62;91.18;101098.13;5040315;28;20063;-69
2022/01/07 01:47:20;;;;;;;14.15;4.25;;;;;;;4.57;91.47;101114.03;5045561;28;20058;-70
2022/01/07 01:49:47;;;;;;;10.98;2.78;;;;;;;4.54;92.10;101104.56;5060416;28;20059;-69
2022/01/07 01:52:14;;;;;;;7.95;3.13;;;;;;;4.61;92.05;101095.72;5055084;28;20131;-71
2022/01/07 01:54:43;;;;;;;18.92;4.97;;;;;;;4.57;91.75;101095.66;5060936;28;20048;-69
2022/01/07 01:57:11;;;;;;;7.72;3.45;;;;;;;4.60;91.72;101084.00;5063553;28;20071;-69
2022/01/07 01:59:38;;;;;;;7.22;2.63;;;;;;;4.62;91.84;101075.38;5051986;28;20124;-70
2022/01/07 02:02:06;;;;;;;11.07;4.10;;;;;;;4.57;91.70;101084.69;5048245;28;20054;-72
2022/01/07 02:04:33;;;;;;;6.55;2.30;;;;;;;4.64;91.96;101070.38;5059179;28;20052;-69
2022/01/07 02:07:00;;;;;;;10.13;2.38;;;;;;;4.63;91.93;101069.56;5042472;28;20052;-70
2022/01/07 02:09:34;;;;;;;13.27;5.32;;;;;;;4.53;91.73;101072.78;5043642;28;20054;-69
2022/01/07 02:12:05;;;;;;;14.60;3.90;;;;;;;4.63;92.38;101068.78;5044481;28;20068;-69
2022/01/07 02:14:34;;;;;;;9.15;2.92;;;;;;;4.61;92.32;101063.66;5047287;28;20601;-71
2022/01/07 02:17:08;;;;;;;12.02;4.15;;;;;;;4.59;92.43;101065.94;5042569;28;20055;-71
2022/01/07 02:19:38;;;;;;;9.77;3.93;;;;;;;4.58;92.14;101060.78;5031803;28;20053;-71
2022/01/07 02:22:06;;;;;;;13.02;4.25;;;;;;;4.59;92.36;101059.66;5036816;28;20566;-71
2022/01/07 02:24:34;;;;;;;17.60;6.68;;;;;;;4.52;92.99;101054.78;5042163;28;20067;-71
2022/01/07 02:27:02;;;;;;;12.77;3.45;;;;;;;4.56;93.40;101043.91;5044844;28;20186;-70
2022/01/07 02:29:29;;;;;;;9.40;3.97;;;;;;;4.54;94.00;101052.50;5024558;28;20057;-70
2022/01/07 02:31:56;;;;;;;3.17;1.27;;;;;;;4.56;94.58;101047.44;5021476;28;20060;-70
2022/01/07 02:34:22;;;;;;;11.98;3.90;;;;;;;4.49;95.53;101058.19;5031278;28;20525;-72
2022/01/07 02:36:49;;;;;;;13.05;4.75;;;;;;;4.46;96.21;101055.38;5045324;28;20052;-73
2022/01/07 02:39:16;;;;;;;6.43;2.75;;;;;;;4.43;97.37;101043.19;5028907;28;20132;-70
2022/01/07 02:41:42;;;;;;;15.98;5.68;;;;;;;4.32;98.46;101053.00;5065239;28;20056;-69
2022/01/07 02:44:09;;;;;;;14.18;4.75;;;;;;;4.33;99.36;101042.84;5034864;28;20053;-69
2022/01/07 02:46:35;;;;;;;8.13;3.65;;;;;;;4.29;100.00;101023.56;5026518;28;20053;-70
2022/01/07 02:49:16;;;;;;;16.50;4.82;;;;;;;4.24;100.00;101028.50;5031549;28;20060;-71
2022/01/07 02:51:44;;;;;;;16.15;6.05;;;;;;;4.11;100.00;101035.94;5043982;28;20207;-70
2022/01/07 02:54:11;;;;;;;13.48;4.10;;;;;;;4.11;100.00;101035.94;5043655;28;20140;-70
2022/01/07 02:56:38;;;;;;;8.05;3.03;;;;;;;4.06;100.00;101019.78;5040143;28;20448;-70
2022/01/07 02:59:06;;;;;;;9.52;3.42;;;;;;;3.95;100.00;101032.34;5027069;28;20045;-71
2022/01/07 03:01:34;;;;;;;16.05;5.20;;;;;;;3.83;100.00;101031.56;5039896;28;20132;-72
2022/01/07 03:04:00;;;;;;;9.07;2.88;;;;;;;3.82;100.00;101028.03;5041472;28;20057;-71
2022/01/07 03:06:27;;;;;;;11.48;3.00;;;;;;;3.74;100.00;101012.53;5041833;28;20048;-70
2022/01/07 03:08:53;;;;;;;11.93;3.75;;;;;;;3.69;100.00;101012.78;5047458;28;20449;-71
2022/01/07 03:11:21;;;;;;;6.93;2.83;;;;;;;3.67;100.00;101001.38;5035887;28;20060;-70
2022/01/07 03:13:47;;;;;;;14.98;4.95;;;;;;;3.59;100.00;101009.69;5044122;28;20059;-70
2022/01/07 03:16:14;;;;;;;18.98;5.68;;;;;;;3.52;100.00;100998.53;5047526;28;20104;-71
2022/01/07 03:18:41;;;;;;;19.73;5.68;;;;;;;3.49;100.00;100991.81;5051042;28;20060;-71
2022/01/07 03:21:08;;;;;;;17.98;6.80;;;;;;;3.39;100.00;101000.47;5043344;28;20501;-70
2022/01/07 03:23:36;;;;;;;21.17;6.03;;;;;;;3.53;100.00;100981.78;5046015;28;20045;-70
2022/01/07 03:26:06;;;;;;;15.25;5.00;;;;;;;3.46;100.00;100950.66;5038624;28;20132;-70
2022/01/07 03:28:32;;;;;;;22.35;7.80;;;;;;;3.29;100.00;100968.13;5050734;28;20131;-71
2022/01/07 03:30:59;;;;;;;11.13;3.92;;;;;;;3.40;100.00;100963.78;5046722;28;20048;-70
2022/01/07 03:33:26;;;;;;;21.45;6.50;;;;;;;3.42;100.00;100957.97;5053040;28;20052;-71
2022/01/07 03:35:53;;;;;;;21.67;8.15;;;;;;;3.18;100.00;100953.31;5030982;28;20049;-69
2022/01/07 03:38:20;;;;;;;19.15;5.80;;;;;;;3.31;100.00;100954.88;5048072;28;20149;-70
2022/01/07 03:40:50;;;;;;;17.35;6.85;;;;;;;3.26;100.00;100946.91;5042615;28;20048;-71
2022/01/07 03:43:16;;;;;;;7.68;2.85;;;;;;;3.25;100.00;100937.13;5045791;28;20140;-71
2022/01/07 03:45:43;;;;;;;16.33;6.15;;;;;;;3.18;100.00;100919.69;5049350;28;20040;-73
2022/01/07 03:48:10;;;;;;;16.40;6.35;;;;;;;3.18;100.00;100897.81;5046709;28;20059;-72
2022/01/07 03:50:38;;;;;;;15.45;6.20;;;;;;;3.26;100.00;100907.81;5045606;28;20157;-70
2022/01/07 03:53:04;;;;;;;8.10;4.18;;;;;;;3.19;100.00;100919.34;5038873;28;20080;-70
2022/01/07 03:55:31;;;;;;;8.55;3.35;;;;;;;3.23;100.00;100908.50;5037056;28;20044;-70
2022/01/07 03:57:59;;;;;;;15.95;5.03;;;;;;;3.14;100.00;100914.09;5062404;28;20738;-71
2022/01/07 04:00:34;;;;;;;7.05;2.95;;;;;;;3.18;100.00;100909.56;5044987;28;20136;-73
2022/01/07 04:03:06;;;;;;;13.18;4.75;;;;;;;3.12;100.00;100908.19;5036597;28;20057;-72
2022/01/07 04:05:33;;;;;;;7.07;2.83;;;;;;;3.05;100.00;100910.72;5049792;28;20517;-70
2022/01/07 04:07:59;;;;;;;11.57;4.10;;;;;;;3.05;100.00;100894.31;5038637;28;20053;-70
2022/01/07 04:10:26;;;;;;;7.57;3.42;;;;;;;3.04;100.00;100895.47;5040214;28;20049;-71
2022/01/07 04:12:52;;;;;;;8.32;4.53;;;;;;;3.05;100.00;100883.38;5036935;28;20424;-71
2022/01/07 04:15:21;;;;;;;13.73;5.47;;;;;;;3.01;100.00;100879.75;5049737;28;20781;-71
2022/01/07 04:17:50;;;;;;;15.90;5.25;;;;;;;3.05;100.00;100877.91;5040743;28;20131;-70
2022/01/07 04:20:19;;;;;;;14.35;4.68;;;;;;;2.99;100.00;100884.75;5039140;28;20049;-70
2022/01/07 04:22:46;;;;;;;13.13;4.90;;;;;;;3.08;100.00;100871.75;5044993;28;20177;-70
2022/01/07 04:25:18;;;;;;;6.70;2.75;;;;;;;3.08;100.00;100874.50;5037604;28;20072;-69
2022/01/07 04:27:49;;;;;;;10.50;4.65;;;;;;;3.08;100.00;100877.22;5037703;28;20057;-70
2022/01/07 04:30:16;;;;;;;8.35;3.65;;;;;;;3.16;100.00;100883.69;5047165;28;20056;-70
2022/01/07 04:32:43;;;;;;;18.85;5.88;;;;;;;3.19;100.00;100885.75;5044668;28;20057;-71
2022/01/07 04:35:12;;;;;;;12.65;5.15;;;;;;;3.12;100.00;100878.13;5053699;28;20054;-70
2022/01/07 04:37:39;;;;;;;15.30;5.45;;;;;;;3.13;100.00;100866.03;5022330;28;20059;-70
2022/01/07 04:40:08;;;;;;;19.60;6.32;;;;;;;3.20;100.00;100860.78;5048025;28;20140;-70
2022/01/07 04:42:34;;;;;;;10.75;4.70;;;;;;;3.19;100.00;100869.34;5045330;28;20136;-72
2022/01/07 04:45:01;;;;;;;24.48;4.65;;;;;;;3.12;100.00;100864.44;5047685;28;20527;-72
2022/01/07 04:47:27;;;;;;;16.33;5.57;;;;;;;3.21;100.00;100870.59;5040644;28;20049;-70
2022/01/07 04:49:54;;;;;;;4.43;2.38;;;;;;;3.26;100.00;100867.63;5046182;28;20049;-69
2022/01/07 04:52:21;;;;;;;7.07;2.85;;;;;;;3.15;100.00;100858.31;5043785;28;20086;-71
2022/01/07 04:54:47;;;;;;;4.25;2.55;;;;;;;3.24;100.00;100864.41;5044706;28;20235;-70
2022/01/07 04:57:14;;;;;;;14.43;4.97;;;;;;;3.24;100.00;100869.88;5049743;28;20045;-73
2022/01/07 04:59:41;;;;;;;8.52;3.30;;;;;;;3.32;100.00;100851.78;5045321;28;20395;-71
2022/01/07 05:02:08;;;;;;;11.98;4.63;;;;;;;3.35;100.00;100856.56;5044947;28;20049;-71
2022/01/07 05:04:34;;;;;;;11.35;4.07;;;;;;;3.31;100.00;100850.97;5042481;28;20691;-70
2022/01/07 05:07:01;;;;;;;11.38;4.05;;;;;;;3.33;100.00;100861.56;5029235;28;20181;-72
2022/01/07 05:09:27;;;;;;;22.45;5.70;;;;;;;3.35;100.00;100854.63;5050862;28;20053;-69
2022/01/07 05:11:54;;;;;;;15.15;4.65;;;;;;;3.41;100.00;100855.94;5038075;28;20524;-71
2022/01/07 05:14:21;;;;;;;14.52;5.40;;;;;;;3.38;100.00;100900.44;5033612;28;20144;-72
2022/01/07 05:16:48;;;;;;;16.00;4.60;;;;;;;3.43;100.00;100872.81;5034650;28;20061;-71
2022/01/07 05:19:14;;;;;;;11.27;2.33;;;;;;;3.58;100.00;100858.41;5036952;28;20045;-70
2022/01/07 05:21:41;;;;;;;22.38;5.18;;;;;;;3.52;100.00;100862.56;5044337;28;20501;-70
2022/01/07 05:24:08;;;;;;;9.07;3.92;;;;;;;3.57;100.00;100856.81;5049245;28;20049;-71
2022/01/07 05:26:34;;;;;;;13.45;3.47;;;;;;;3.55;100.00;100848.19;5048094;28;20063;-71
2022/01/07 05:29:00;;;;;;;11.35;4.38;;;;;;;3.53;100.00;100853.19;5039787;28;20063;-71
2022/01/07 05:31:27;;;;;;;12.98;4.30;;;;;;;3.53;100.00;100850.47;5032200;28;20144;-70
2022/01/07 05:33:55;;;;;;;11.48;3.53;;;;;;;3.60;100.00;100847.13;5035937;28;20111;-72
2022/01/07 05:36:21;;;;;;;11.10;2.67;;;;;;;3.55;100.00;100836.44;5043324;28;20551;-71
2022/01/07 05:38:49;;;;;;;12.73;4.07;;;;;;;3.58;100.00;100842.00;5041722;28;20053;-71
2022/01/07 05:41:16;;;;;;;12.38;4.20;;;;;;;3.50;100.00;100845.69;5032513;28;20045;-71
2022/01/07 05:43:42;;;;;;;17.33;5.13;;;;;;;3.40;100.00;100837.16;5032961;28;20045;-71
2022/01/07 05:46:11;;;;;;;15.48;6.22;;;;;;;3.34;100.00;100844.81;5037579;28;20084;-73
2022/01/07 05:48:39;;;;;;;13.75;4.78;;;;;;;3.30;100.00;100829.47;5039390;28;20564;-72
2022/01/07 05:51:07;;;;;;;5.75;2.47;;;;;;;3.28;100.00;100832.53;5040066;28;20049;-69
2022/01/07 05:53:33;;;;;;;17.70;4.88;;;;;;;3.14;100.00;100837.56;5043546;28;20057;-72
2022/01/07 05:56:00;;;;;;;11.73;4.60;;;;;;;3.14;100.00;100834.81;5046498;28;20148;-71
2022/01/07 05:58:27;;;;;;;11.02;4.13;;;;;;;3.11;100.00;100832.81;5028330;28;20056;-73
2022/01/07 06:00:53;;;;;;;9.88;4.28;;;;;;;3.10;100.00;100831.19;5041434;28;20098;-71
2022/01/07 06:03:20;;;;;;;15.82;5.28;;;;;;;3.06;100.00;100835.75;5040248;28;20057;-72
2022/01/07 06:05:47;;;;;;;16.27;3.85;;;;;;;3.00;100.00;100837.13;5037023;28;20142;-72
2022/01/07 06:08:14;;;;;;;12.48;4.55;;;;;;;3.02;100.00;100831.31;5026894;28;20513;-71
2022/01/07 06:10:44;;;;;;;7.65;3.35;;;;;;;2.91;100.00;100833.72;5045743;28;20099;-71
2022/01/07 06:13:11;;;;;;;14.70;5.93;;;;;;;2.88;100.00;100828.94;5038688;28;20053;-71
2022/01/07 06:15:37;;;;;;;10.65;3.80;;;;;;;2.94;100.00;100826.78;5047645;28;20131;-73
2022/01/07 06:18:04;;;;;;;9.48;4.78;;;;;;;2.87;100.00;100819.13;5029872;28;20049;-71
2022/01/07 06:20:31;;;;;;;6.20;3.15;;;;;;;2.84;100.00;100828.03;5037320;28;20600;-70
2022/01/07 06:22:58;;;;;;;18.67;6.50;;;;;;;2.73;100.00;100822.22;5039119;28;20141;-71
2022/01/07 06:25:25;;;;;;;12.75;5.43;;;;;;;2.81;100.00;100822.47;5045937;28;20053;-71
2022/01/07 06:27:51;;;;;;;10.70;4.00;;;;;;;2.80;100.00;100821.66;5033780;28;20049;-71
2022/01/07 06:30:18;;;;;;;13.02;5.03;;;;;;;2.82;100.00;100822.13;5038733;28;20045;-72
2022/01/07 06:32:44;;;;;;;12.20;4.82;;;;;;;2.72;100.00;100825.31;5039777;28;20239;-73
2022/01/07 06:35:11;;;;;;;9.55;3.92;;;;;;;2.76;100.00;100809.81;5027648;28;20137;-71
2022/01/07 06:37:38;;;;;;;8.38;3.13;;;;;;;2.76;100.00;100807.09;5036852;28;20049;-72
2022/01/07 06:40:06;;;;;;;8.27;2.97;;;;;;;2.77;100.00;100814.16;5036581;28;20088;-72
2022/01/07 06:42:33;;;;;;;18.55;6.28;;;;;;;2.81;100.00;100809.59;5035299;28;20137;-71
2022/01/07 06:44:59;;;;;;;17.23;5.60;;;;;;;2.72;100.00;100812.44;5034983;28;20045;-71
2022/01/07 06:47:26;;;;;;;11.60;4.53;;;;;;;2.78;100.00;100813.03;5045302;28;20048;-73
2022/01/07 06:49:53;;;;;;;12.80;4.30;;;;;;;2.81;100.00;100806.88;5047840;28;20140;-72
2022/01/07 06:52:20;;;;;;;8.60;2.85;;;;;;;2.85;100.00;100806.97;5039518;28;20091;-71
2022/01/07 06:54:46;;;;;;;11.48;4.32;;;;;;;2.93;100.00;100809.56;5047981;28;20759;-70
2022/01/07 06:57:13;;;;;;;6.75;3.38;;;;;;;2.94;100.00;100815.84;5039112;28;20092;-72
2022/01/07 06:59:40;;;;;;;10.93;4.70;;;;;;;2.96;100.00;100797.94;5047552;28;20049;-72
2022/01/07 07:02:07;;;;;;;6.55;2.92;;;;;;;3.01;100.00;100800.47;5039570;28;20132;-71
2022/01/07 07:04:34;;;;;;;13.48;5.40;;;;;;;3.00;100.00;100815.25;5045061;28;20046;-71
2022/01/07 07:07:01;;;;;;;8.88;4.40;;;;;;;3.06;100.00;100799.41;5049735;28;20067;-70
2022/01/07 07:09:28;;;;;;;6.10;2.75;;;;;;;3.09;100.00;100801.47;5043736;28;20423;-71
2022/01/07 07:11:55;;;;;;;11.85;4.30;;;;;;;3.08;100.00;100806.16;5049169;28;20629;-71
2022/01/07 07:14:22;;;;;;;7.20;3.33;;;;;;;3.14;100.00;100809.44;5048516;28;20056;-71
2022/01/07 07:16:49;;;;;;;12.43;4.68;;;;;;;3.14;100.00;100821.16;5039955;28;20100;-71
2022/01/07 07:19:15;;;;;;;19.77;6.88;;;;;;;3.23;100.00;100819.09;5051957;28;20049;-71
2022/01/07 07:21:42;;;;;;;7.40;2.13;;;;;;;3.24;100.00;100819.88;5040070;28;20126;-71
2022/01/07 07:24:09;;;;;;;17.75;7.53;;;;;;;3.21;100.00;100807.72;5038390;28;20371;-71
2022/01/07 07:26:36;;;;;;;8.18;3.20;;;;;;;3.27;100.00;100816.47;5043460;28;20143;-71
2022/01/07 07:29:03;;;;;;;17.33;4.75;;;;;;;3.29;100.00;100823.19;5050625;28;20055;-70
2022/01/07 07:31:31;;;;;;;11.18;4.68;;;;;;;3.31;100.00;100826.34;5045341;28;20409;-71
2022/01/07 07:36:44;;;;;;;17.13;6.47;;;;;;;3.34;100.00;100822.91;5063434;28;20080;-75
2022/01/07 07:39:12;;;;;;;15.82;6.00;;;;;;;3.33;100.00;100823.25;5036589;28;20055;-73
2022/01/07 07:41:41;;;;;;;14.25;4.90;;;;;;;3.42;100.00;100826.66;5041036;28;20052;-74
2022/01/07 07:44:08;;;;;;;15.32;6.55;;;;;;;3.38;100.00;100815.63;5045616;28;20054;-73
2022/01/07 07:46:37;;;;;;;12.68;5.55;;;;;;;3.44;100.00;100816.97;5044883;28;20149;-73
2022/01/07 07:49:05;;;;;;;18.95;6.88;;;;;;;3.46;100.00;100817.44;5041827;28;20589;-74
2022/01/07 07:51:32;;;;;;;11.70;4.80;;;;;;;3.58;100.00;100820.09;5048090;28;20128;-74
2022/01/07 07:53:58;;;;;;;18.35;7.82;;;;;;;3.61;100.00;100813.16;5041935;28;20073;-75
2022/01/07 07:56:26;;;;;;;14.27;5.97;;;;;;;3.56;100.00;100806.00;5039363;28;20087;-76
2022/01/07 07:58:53;;;;;;;11.30;4.95;;;;;;;3.59;100.00;100810.78;5041113;28;20133;-73
2022/01/07 08:01:21;;;;;;;7.82;2.83;;;;;;;3.61;100.00;100813.94;5030950;28;20560;-75
2022/01/07 08:03:48;;;;;;;17.38;7.10;;;;;;;3.62;100.00;100810.09;5044477;28;20046;-74
2022/01/07 08:06:14;;;;;;;6.63;3.25;;;;;;;3.71;100.00;100812.66;5040871;28;20135;-74
2022/01/07 08:08:41;;;;;;;14.68;5.20;;;;;;;3.70;100.00;100822.81;5048074;28;20045;-75
2022/01/07 08:11:10;;;;;;;11.48;4.25;;;;;;;3.73;100.00;100813.91;5039132;28;20049;-74
2022/01/07 08:16:27;;;;;;;6.90;3.05;;;;;;;3.80;100.00;100805.88;5039825;28;20063;-74
2022/01/07 08:18:57;;;;;;;5.57;3.22;;;;;;;3.83;100.00;100815.34;5051901;28;20063;-72
2022/01/07 08:21:27;;;;;;;13.05;4.95;;;;;;;3.88;100.00;100818.59;5047791;28;20607;-74
2022/01/07 08:23:55;;;;;;;13.63;5.63;;;;;;;3.90;100.00;100830.00;5046558;28;20103;-73
2022/01/07 08:26:22;;;;;;;8.90;3.65;;;;;;;3.97;100.00;100816.50;5044877;28;20098;-74
2022/01/07 08:28:53;;;;;;;13.85;6.28;;;;;;;3.92;100.00;100822.22;5044787;28;20053;-73
2022/01/07 08:36:38;;;;;;;15.65;6.55;;;;;;;4.04;100.00;100811.22;5043228;28;20057;-74
2022/01/07 08:39:07;;;;;;;8.23;3.15;;;;;;;4.11;100.00;100814.16;5038980;28;20053;-74
2022/01/07 08:41:35;;;;;;;21.17;3.83;;;;;;;4.15;100.00;100822.47;5047604;28;20092;-72
2022/01/07 08:44:03;;;;;;;10.90;3.83;;;;;;;4.17;100.00;100810.00;5043439;28;20425;-75
2022/01/07 08:46:30;;;;;;;8.98;3.97;;;;;;;4.19;100.00;100804.97;5040001;28;20049;-74
2022/01/07 08:48:59;;;;;;;15.10;4.95;;;;;;;4.24;100.00;100799.22;5051827;28;20052;-74
2022/01/07 08:51:26;;;;;;;15.32;5.70;;;;;;;4.22;100.00;100787.81;5050001;28;20053;-74
2022/01/07 08:53:53;;;;;;;14.38;5.82;;;;;;;4.28;100.00;100794.63;5041775;28;20049;-73
2022/01/07 08:56:23;;;;;;;14.93;5.43;;;;;;;4.31;100.00;100790.38;5044716;28;20129;-74
2022/01/07 08:58:57;;;;;;;14.60;6.15;;;;;;;4.33;100.00;100780.69;5043479;28;20059;-75
2022/01/07 09:01:28;;;;;;;10.95;3.58;;;;;;;4.38;100.00;100780.41;5042511;28;20098;-74
2022/01/07 09:03:55;;;;;;;12.73;5.57;;;;;;;4.37;100.00;100787.03;5048713;28;20147;-73
2022/01/07 09:06:22;;;;;;;13.68;6.07;;;;;;;4.36;100.00;100779.19;5040522;28;20052;-75
2022/01/07 09:08:48;;;;;;;14.05;6.15;;;;;;;4.39;100.00;100790.22;5039874;28;20057;-72
2022/01/07 09:11:15;;;;;;;13.35;5.13;;;;;;;4.43;100.00;100777.41;5037003;28;20173;-72
2022/01/07 09:13:42;;;;;;;7.57;3.47;;;;;;;4.49;100.00;100781.47;5036730;28;20045;-71
2022/01/07 09:16:08;;;;;;;19.73;6.35;;;;;;;4.46;100.00;100784.91;5043931;28;20049;-72
2022/01/07 09:18:35;;;;;;;12.65;4.35;;;;;;;4.50;100.00;100777.59;5048625;28;20080;-73
2022/01/07 09:21:01;;;;;;;11.00;3.72;;;;;;;4.52;100.00;100794.44;5038046;28;20049;-75
2022/01/07 09:23:28;;;;;;;13.63;6.18;;;;;;;4.57;100.00;100787.91;5037987;28;20053;-72
2022/01/07 09:25:55;;;;;;;9.60;5.03;;;;;;;4.56;100.00;100789.84;5049650;28;20057;-74
2022/01/07 09:28:21;;;;;;;6.22;2.85;;;;;;;4.62;100.00;100790.38;5044150;28;20141;-74
2022/01/07 09:30:48;;;;;;;7.75;3.38;;;;;;;4.61;100.00;100781.38;5044839;28;20395;-73
2022/01/07 09:33:14;;;;;;;11.32;4.85;;;;;;;4.64;100.00;100780.66;5038430;28;20160;-73
2022/01/07 09:35:41;;;;;;;13.52;5.88;;;;;;;4.59;100.00;100797.34;5036126;28;21620;-74
2022/01/07 09:38:08;;;;;;;13.25;6.43;;;;;;;4.56;100.00;100786.31;5046376;28;20056;-73
2022/01/07 09:40:34;;;;;;;13.98;5.75;;;;;;;4.60;100.00;100817.34;5050438;28;20139;-74
2022/01/07 09:43:06;;;;;;;3.28;1.83;;;;;;;4.69;100.00;100802.31;5036751;28;20059;-74
2022/01/07 09:45:35;;;;;;;8.82;3.63;;;;;;;4.70;100.00;100792.16;5046811;28;20583;-74
2022/01/07 09:48:03;;;;;;;12.80;6.00;;;;;;;4.59;100.00;100800.09;5032330;28;20055;-74
2022/01/07 09:50:31;;;;;;;7.88;3.88;;;;;;;4.63;100.00;100784.53;5043411;28;20128;-75
2022/01/07 09:53:04;;;;;;;13.18;4.90;;;;;;;4.69;100.00;100787.81;5048771;28;20144;-75
2022/01/07 09:55:31;;;;;;;11.07;4.50;;;;;;;4.63;100.00;100778.28;5044322;28;20079;-74
2022/01/07 09:57:57;;;;;;;5.57;3.15;;;;;;;4.71;100.00;100774.53;5033310;28;20041;-74
2022/01/07 10:00:24;;;;;;;7.75;3.75;;;;;;;4.52;100.00;100742.38;5032746;28;20134;-76
2022/01/07 10:03:01;;;;;;;13.30;4.95;;;;;;;4.81;100.00;100768.50;5033522;28;20052;-74
2022/01/07 10:05:29;;;;;;;10.52;4.35;;;;;;;4.73;100.00;100773.03;5043545;28;20139;-73
2022/01/07 10:07:56;;;;;;;2.40;1.98;;;;;;;4.80;100.00;100773.19;5039757;28;20135;-75
2022/01/07 10:10:22;;;;;;;8.70;3.05;;;;;;;4.80;100.00;100766.94;5044149;28;20072;-74
2022/01/07 10:12:59;;;;;;;6.95;2.83;;;;;;;4.82;100.00;100790.09;5056963;28;20052;-75
2022/01/07 10:15:26;;;;;;;7.00;3.38;;;;;;;4.86;100.00;100784.69;5036246;28;20085;-74
2022/01/07 10:17:55;;;;;;;4.70;2.50;;;;;;;4.86;100.00;100782.72;5048802;28;20044;-74
2022/01/07 10:20:24;;;;;;;12.30;4.03;;;;;;;4.89;100.00;100778.47;5050189;28;20086;-75
2022/01/07 10:22:55;;;;;;;9.38;3.28;;;;;;;4.82;100.00;100776.38;5042250;28;20135;-74
2022/01/07 10:25:28;;;;;;;8.30;3.72;;;;;;;4.83;100.00;100774.44;5036909;28;20073;-73
2022/01/07 10:28:19;;;;;;;8.73;3.90;;;;;;;4.99;100.00;100786.94;5039625;28;20159;-73
2022/01/07 10:30:47;;;;;;;6.90;3.05;;;;;;;4.95;100.00;100783.34;5034287;28;20101;-74
2022/01/07 10:33:19;;;;;;;10.70;2.47;;;;;;;5.00;100.00;100774.81;5037340;28;20049;-74
2022/01/07 10:35:53;;;;;;;8.25;2.78;;;;;;;5.03;100.00;100776.84;5034464;28;20393;-74
2022/01/07 10:38:22;;;;;;;9.13;3.55;;;;;;;5.07;100.00;100768.72;5038010;28;20099;-73
2022/01/07 10:40:51;;;;;;;8.02;3.70;;;;;;;5.09;100.00;100767.19;5031974;28;20129;-75
2022/01/07 10:43:25;;;;;;;9.48;2.95;;;;;;;5.16;100.00;100772.03;5033001;28;20084;-74
2022/01/07 10:45:54;;;;;;;8.10;2.97;;;;;;;5.16;100.00;100764.59;5030343;28;20057;-74
2022/01/07 10:48:25;;;;;;;5.40;2.50;;;;;;;5.18;100.00;100773.28;5035837;28;20273;-75
2022/01/07 10:50:52;;;;;;;8.10;3.67;;;;;;;5.17;100.00;100765.41;5044262;28;20076;-75
2022/01/07 10:53:24;;;;;;;8.50;3.85;;;;;;;5.20;100.00;100768.19;5039768;28;20088;-74
2022/01/07 10:56:17;;;;;;;8.27;3.60;;;;;;;5.22;100.00;100757.69;5040741;28;20076;-75
2022/01/07 10:58:47;;;;;;;8.57;4.00;;;;;;;5.27;100.00;100753.84;5045393;28;20143;-74
2022/01/07 11:01:20;;;;;;;8.43;4.10;;;;;;;5.33;100.00;100757.88;5033333;28;20046;-73
2022/01/07 11:03:49;;;;;;;5.45;3.10;;;;;;;5.30;100.00;100742.94;5051374;28;20053;-73
2022/01/07 11:06:16;;;;;;;9.43;4.07;;;;;;;5.28;100.00;100738.97;5044019;28;20450;-74
2022/01/07 11:08:43;;;;;;;12.65;4.47;;;;;;;5.30;100.00;100734.72;5045320;28;20076;-74
2022/01/07 11:11:13;;;;;;;9.57;4.88;;;;;;;5.31;100.00;100730.03;5040566;28;20049;-74
2022/01/07 11:13:41;;;;;;;9.13;4.28;;;;;;;5.44;100.00;100734.22;5048591;28;20052;-74
2022/01/07 11:16:08;;;;;;;9.70;4.75;;;;;;;5.37;100.00;100728.59;5044584;28;20140;-75
2022/01/07 11:18:37;;;;;;;6.63;3.22;;;;;;;5.44;100.00;100726.75;5046734;28;20049;-74
2022/01/07 11:21:05;;;;;;;10.93;5.07;;;;;;;5.37;100.00;100729.38;5046083;28;20132;-75
2022/01/07 11:23:34;;;;;;;11.88;4.40;;;;;;;5.54;100.00;100728.13;5036278;28;20078;-73
2022/01/07 11:26:03;;;;;;;8.68;3.40;;;;;;;5.53;100.00;100729.28;5030520;28;20363;-74
2022/01/07 11:28:30;;;;;;;11.75;4.32;;;;;;;5.51;100.00;100731.59;5042794;28;20077;-75
2022/01/07 11:31:17;;;;;;;13.68;5.38;;;;;;;5.54;100.00;100727.34;5045190;28;20752;-74
2022/01/07 11:33:43;;;;;;;11.57;4.72;;;;;;;5.52;100.00;100738.69;5035703;28;20501;-75
2022/01/07 11:36:11;;;;;;;12.20;4.88;;;;;;;5.54;100.00;100727.34;5044388;28;20135;-74